createdAt,value
2022-12-23T00:01:58.769Z,109.40
2022-12-23T00:04:29.311Z,105.10
2022-12-23T00:06:58.648Z,97.50
2022-12-23T00:09:27.889Z,95.90
2022-12-23T00:12:16.081Z,97.30
2022-12-23T00:15:03.481Z,104.40
2022-12-23T00:17:37.529Z,100.00
2022-12-23T00:20:06.540Z,89.40
2022-12-23T00:22:53.263Z,111.80
2022-12-23T00:25:43.921Z,121.50
2022-12-23T00:28:15.769Z,112.90
2022-12-23T00:30:54.135Z,114.10
2022-12-23T00:33:25.632Z,118.60
2022-12-23T00:35:54.671Z,108.40
2022-12-23T00:44:21.485Z,116.50
2022-12-23T00:46:50.284Z,109.80
2022-12-23T00:54:36.590Z,103.10
2022-12-23T00:57:05.190Z,112.50
2022-12-23T00:59:35.275Z,103.50
2022-12-23T01:02:25.020Z,118.70
2022-12-23T01:05:11.846Z,115.60
2022-12-23T01:07:40.107Z,108.40
2022-12-23T01:10:09.164Z,95.80
2022-12-23T01:12:37.473Z,118.90
2022-12-23T01:15:06.194Z,105.10
2022-12-23T01:20:02.350Z,90.40
2022-12-23T01:22:30.494Z,99.70
2022-12-23T01:24:58.614Z,102.60
2022-12-23T01:27:26.767Z,98.50
2022-12-23T01:29:54.887Z,114.20
2022-12-23T01:32:23.004Z,119.40
2022-12-23T01:34:52.594Z,110.10
2022-12-23T01:37:21.060Z,116.00
2022-12-23T01:39:49.198Z,124.10
2022-12-23T01:42:39.024Z,110.50
2022-12-23T01:45:29.635Z,107.70
2022-12-23T01:48:10.208Z,108.00
2022-12-23T01:50:44.819Z,99.70
2022-12-23T01:53:22.487Z,104.10
2022-12-23T01:55:56.704Z,102.90
2022-12-23T01:58:28.678Z,106.00
2022-12-23T02:01:16.710Z,110.40
2022-12-23T02:03:47.494Z,104.30
2022-12-23T02:06:43.072Z,108.20
2022-12-23T02:09:19.789Z,110.40
2022-12-23T02:12:06.471Z,120.40
2022-12-23T02:15:20.961Z,102.20
2022-12-23T02:18:04.137Z,107.10
2022-12-23T02:21:11.340Z,93.20
2022-12-23T02:23:47.923Z,95.50
2022-12-23T02:26:35.012Z,88.20
2022-12-23T02:29:46.025Z,91.20
2022-12-23T02:32:47.816Z,91.40
2022-12-23T02:35:38.193Z,90.60
2022-12-23T02:38:24.071Z,90.50
2022-12-23T02:41:12.449Z,87.10
2022-12-23T02:44:02.351Z,81.70
2022-12-23T02:46:49.571Z,97.80
2022-12-23T02:49:35.591Z,87.40
2022-12-23T02:52:13.302Z,92.10
2022-12-23T02:54:49.433Z,83.80
2022-12-23T02:57:21.481Z,82.90
2022-12-23T02:59:54.227Z,78.90
2022-12-23T03:02:22.684Z,76.90
2022-12-23T03:04:51.997Z,77.60
2022-12-23T03:07:43.256Z,77.40
2022-12-23T03:10:20.616Z,83.30
2022-12-23T03:13:17.200Z,86.50
2022-12-23T03:15:50.040Z,74.10
2022-12-23T03:18:32.980Z,74.20
2022-12-23T03:21:36.564Z,73.50
2022-12-23T03:24:17.796Z,77.40
2022-12-23T03:26:54.143Z,82.80
2022-12-23T03:29:44.388Z,74.70
2022-12-23T03:32:16.230Z,78.70
2022-12-23T03:34:48.389Z,81.30
2022-12-23T03:37:20.232Z,69.90
2022-12-23T03:40:25.073Z,79.50
2022-12-23T03:43:01.339Z,72.10
2022-12-23T03:45:42.292Z,72.60
2022-12-23T03:48:20.450Z,80.30
2022-12-23T03:50:54.315Z,75.70
2022-12-23T03:53:46.853Z,83.80
2022-12-23T03:56:23.544Z,78.20
2022-12-23T03:58:58.644Z,64.70
2022-12-23T04:01:46.262Z,71.30
2022-12-23T04:04:28.397Z,71.60
2022-12-23T04:07:14.308Z,66.80
2022-12-23T04:09:43.806Z,63.50
2022-12-23T04:12:14.693Z,63.90
2022-12-23T04:14:48.977Z,64.20
2022-12-23T04:17:18.209Z,60.80
2022-12-23T04:19:48.285Z,53.10
2022-12-23T04:22:16.853Z,62.70
2022-12-23T04:24:47.070Z,63.60
2022-12-23T04:27:16.378Z,43.60
2022-12-23T04:29:44.952Z,52.10
2022-12-23T04:34:41.841Z,47.00
2022-12-23T04:37:11.992Z,45.20
2022-12-23T04:39:41.705Z,51.00
2022-12-23T04:42:13.606Z,55.70
2022-12-23T04:44:41.798Z,57.00
2022-12-23T04:47:10.688Z,56.80
2022-12-23T04:49:38.932Z,55.90
2022-12-23T04:52:07.096Z,60.30
2022-12-23T04:54:43.856Z,62.60
2022-12-23T04:57:15.385Z,61.00
2022-12-23T04:59:43.604Z,65.40
2022-12-23T05:02:12.744Z,53.80
2022-12-23T05:04:47.860Z,50.50
2022-12-23T05:07:16.701Z,53.00
2022-12-23T05:09:44.769Z,51.20
2022-12-23T05:12:12.952Z,58.10
2022-12-23T05:14:43.722Z,54.40
2022-12-23T05:17:11.789Z,46.30
2022-12-23T05:19:40.054Z,53.20
2022-12-23T05:22:08.426Z,48.00
2022-12-23T05:24:36.603Z,49.20
2022-12-23T05:27:04.905Z,57.70
2022-12-23T05:29:32.969Z,56.40
2022-12-23T05:32:01.148Z,54.90
2022-12-23T05:34:29.283Z,57.60
2022-12-23T05:36:57.543Z,55.10
2022-12-23T05:39:25.862Z,57.30
2022-12-23T05:41:54.045Z,45.70
2022-12-23T05:44:22.085Z,34.50
2022-12-23T05:46:50.175Z,37.00
2022-12-23T05:49:18.281Z,38.90
2022-12-23T05:51:46.497Z,39.40
2022-12-23T05:54:15.904Z,31.50
2022-12-23T05:56:44.168Z,41.10
2022-12-23T05:59:12.691Z,45.00
2022-12-23T06:01:43.055Z,47.40
2022-12-23T06:04:14.308Z,49.90
2022-12-23T06:06:42.481Z,41.40
2022-12-23T06:09:10.736Z,53.80
2022-12-23T06:11:38.919Z,52.60
2022-12-23T06:14:10.298Z,47.30
2022-12-23T06:16:42.839Z,59.50
2022-12-23T06:19:11.136Z,63.20
2022-12-23T06:21:39.698Z,51.90
2022-12-23T06:24:09.017Z,61.80
2022-12-23T06:26:38.267Z,65.80
2022-12-23T06:29:07.610Z,53.20
2022-12-23T06:31:35.775Z,54.50
2022-12-23T06:34:03.871Z,48.90
2022-12-23T06:39:00.799Z,40.40
2022-12-23T06:41:28.961Z,45.30
2022-12-23T06:44:02.145Z,50.80
2022-12-23T06:46:30.596Z,70.20
2022-12-23T06:48:58.823Z,68.40
2022-12-23T06:51:27.179Z,71.20
2022-12-23T06:53:55.951Z,64.70
2022-12-23T06:56:25.626Z,53.20
2022-12-23T06:58:56.855Z,56.10
2022-12-23T07:01:27.116Z,44.00
2022-12-23T07:03:56.574Z,42.10
2022-12-23T07:06:24.671Z,39.50
2022-12-23T07:08:52.825Z,38.30
2022-12-23T07:11:20.987Z,38.40
2022-12-23T07:13:49.156Z,36.40
2022-12-23T07:16:17.815Z,38.30
2022-12-23T07:18:46.061Z,35.30
2022-12-23T07:21:24.586Z,36.80
2022-12-23T07:23:58.275Z,37.00
2022-12-23T07:26:26.465Z,36.60
2022-12-23T07:28:54.669Z,37.20
2022-12-23T07:31:23.037Z,40.60
2022-12-23T07:33:51.099Z,39.90
2022-12-23T07:36:19.338Z,39.30
2022-12-23T07:38:51.848Z,42.20
2022-12-23T07:41:21.282Z,42.40
2022-12-23T07:43:50.166Z,39.90
2022-12-23T07:46:19.625Z,38.80
2022-12-23T07:48:47.666Z,38.70
2022-12-23T07:51:15.780Z,39.40
2022-12-23T07:53:44.047Z,37.40
2022-12-23T07:56:12.047Z,37.70
2022-12-23T07:58:41.307Z,33.90
2022-12-23T08:01:09.552Z,39.40
2022-12-23T08:03:37.928Z,37.70
2022-12-23T08:06:12.414Z,39.60
2022-12-23T08:08:42.156Z,37.00
2022-12-23T08:11:12.407Z,39.70
2022-12-23T08:13:43.115Z,39.70
2022-12-23T08:16:12.920Z,41.30
2022-12-23T08:18:42.156Z,38.50
2022-12-23T08:21:16.825Z,42.60
2022-12-23T08:23:48.502Z,38.60
2022-12-23T08:26:22.521Z,30.70
2022-12-23T08:28:55.387Z,32.70
2022-12-23T08:31:34.416Z,29.50
2022-12-23T08:34:04.369Z,27.60
2022-12-23T08:36:34.903Z,31.80
2022-12-23T08:39:09.466Z,31.10
2022-12-23T08:41:41.923Z,28.10
2022-12-23T08:44:10.788Z,31.80
2022-12-23T08:46:39.765Z,31.50
2022-12-23T08:49:08.914Z,32.00
2022-12-23T08:51:38.919Z,32.80
2022-12-23T08:54:07.567Z,36.90
2022-12-23T08:56:39.239Z,31.90
2022-12-23T08:59:18.714Z,33.70
2022-12-23T09:01:48.586Z,33.70
2022-12-23T09:04:17.279Z,32.60
2022-12-23T09:06:46.740Z,36.40
2022-12-23T09:09:15.886Z,36.40
2022-12-23T09:11:45.622Z,29.70
2022-12-23T09:14:14.030Z,32.20
2022-12-23T09:16:42.470Z,28.80
2022-12-23T09:19:10.595Z,25.30
2022-12-23T09:21:38.855Z,24.70
2022-12-23T09:26:36.507Z,22.40
2022-12-23T09:29:05.948Z,23.70
2022-12-23T09:31:57.778Z,22.00
2022-12-23T09:34:26.805Z,21.20
2022-12-23T09:36:55.665Z,21.40
2022-12-23T09:39:25.950Z,18.70
2022-12-23T09:42:06.190Z,42.50
2022-12-23T09:45:13.326Z,21.50
2022-12-23T09:47:43.113Z,20.60
2022-12-23T09:50:29.722Z,23.20
2022-12-23T09:53:12.834Z,20.30
2022-12-23T09:56:09.145Z,24.40
2022-12-23T09:59:03.619Z,24.20
2022-12-23T10:01:48.940Z,23.20
2022-12-23T10:04:45.687Z,25.20
2022-12-23T10:07:34.262Z,26.50
2022-12-23T10:10:13.614Z,29.10
2022-12-23T10:12:49.472Z,27.00
2022-12-23T10:15:42.902Z,32.90
2022-12-23T10:18:21.865Z,30.10
2022-12-23T10:21:31.700Z,28.70
2022-12-23T10:24:06.150Z,23.80
2022-12-23T10:26:53.295Z,26.20
2022-12-23T10:29:27.831Z,22.20
2022-12-23T10:32:33.383Z,19.80
2022-12-23T10:35:11.468Z,19.40
2022-12-23T10:38:09.667Z,18.60
2022-12-23T10:41:14.395Z,20.30
2022-12-23T10:43:52.687Z,18.80
2022-12-23T10:46:38.937Z,17.50
2022-12-23T10:49:24.142Z,17.70
2022-12-23T10:52:00.469Z,17.10
2022-12-23T10:54:34.223Z,14.50
2022-12-23T10:57:05.843Z,14.30
2022-12-23T10:59:36.150Z,14.70
2022-12-23T11:02:14.607Z,20.00
2022-12-23T11:04:48.946Z,17.20
2022-12-23T11:07:43.591Z,15.90
2022-12-23T11:10:26.279Z,14.90
2022-12-23T11:12:54.864Z,10.20
2022-12-23T11:15:33.428Z,7.90
2022-12-23T11:18:06.308Z,6.00
2022-12-23T11:20:36.808Z,8.20
2022-12-23T11:23:06.964Z,6.90
2022-12-23T11:25:37.331Z,10.90
2022-12-23T11:28:16.901Z,5.50
2022-12-23T11:30:59.189Z,7.30
2022-12-23T11:33:31.569Z,10.40
2022-12-23T11:36:14.948Z,12.00
2022-12-23T11:39:18.368Z,10.70
2022-12-23T11:41:49.952Z,9.90
2022-12-23T11:44:21.030Z,11.60
2022-12-23T11:46:50.219Z,11.30
2022-12-23T11:49:23.149Z,12.10
2022-12-23T11:52:02.485Z,13.40
2022-12-23T11:54:55.267Z,9.70
2022-12-23T11:57:40.723Z,9.80
2022-12-23T12:01:48.760Z,11.20
2022-12-23T12:04:24.901Z,12.10
2022-12-23T12:06:56.846Z,10.20
2022-12-23T12:09:25.561Z,11.40
2022-12-23T12:12:03.660Z,9.90
2022-12-23T12:14:43.452Z,8.90
2022-12-23T12:17:15.010Z,9.00
2022-12-23T12:20:01.668Z,7.50
2022-12-23T12:22:42.885Z,8.80
2022-12-23T12:25:36.349Z,7.90
2022-12-23T12:28:34.689Z,9.70
2022-12-23T12:31:14.427Z,9.90
2022-12-23T12:34:05.813Z,9.60
2022-12-23T12:37:16.317Z,8.80
2022-12-23T12:40:08.327Z,8.50
2022-12-23T12:42:44.327Z,11.70
2022-12-23T12:45:21.806Z,13.90
2022-12-23T12:47:55.186Z,16.70
2022-12-23T12:50:43.827Z,17.90
2022-12-23T12:53:20.168Z,19.00
2022-12-23T12:55:55.457Z,19.90
2022-12-23T12:58:24.612Z,19.90
2022-12-23T13:01:17.490Z,17.70
2022-12-23T13:04:04.169Z,20.50
2022-12-23T13:06:39.509Z,21.40
2022-12-23T13:09:17.004Z,22.30
2022-12-23T13:12:33.656Z,20.70
2022-12-23T13:15:04.640Z,22.40
2022-12-23T13:17:42.980Z,22.90
2022-12-23T13:20:27.634Z,21.00
2022-12-23T13:23:27.012Z,21.70
2022-12-23T13:26:02.099Z,22.00
2022-12-23T13:29:09.198Z,22.50
2022-12-23T13:32:10.882Z,22.70
2022-12-23T13:35:24.948Z,22.00
2022-12-23T13:38:14.644Z,24.20
2022-12-23T13:41:14.060Z,22.70
2022-12-23T13:44:01.892Z,24.10
2022-12-23T13:46:50.948Z,24.30
2022-12-23T13:49:28.293Z,24.80
2022-12-23T13:52:06.155Z,25.50
2022-12-23T13:54:43.576Z,29.70
2022-12-23T13:57:46.685Z,30.20
2022-12-23T14:00:18.149Z,31.20
2022-12-23T14:03:08.880Z,31.90
2022-12-23T14:05:41.801Z,36.30
2022-12-23T14:08:24.657Z,37.50
2022-12-23T14:11:12.130Z,38.90
2022-12-23T14:14:02.908Z,35.00
2022-12-23T14:16:59.255Z,30.60
2022-12-23T14:20:09.242Z,27.10
2022-12-23T14:23:00.253Z,27.90
2022-12-23T14:26:00.041Z,30.00
2022-12-23T14:29:01.940Z,30.00
2022-12-23T14:31:34.684Z,34.40
2022-12-23T14:34:26.375Z,35.20
2022-12-23T14:37:25.992Z,37.20
2022-12-23T14:39:59.526Z,40.30
2022-12-23T14:42:40.968Z,40.80
2022-12-23T14:45:30.153Z,43.20
2022-12-23T14:48:00.853Z,49.40
2022-12-23T14:50:37.650Z,49.70
2022-12-23T14:53:29.685Z,50.20
2022-12-23T14:56:10.524Z,51.30
2022-12-23T14:58:46.291Z,56.10
2022-12-23T15:01:27.077Z,65.40
2022-12-23T15:04:01.643Z,65.20
2022-12-23T15:09:21.454Z,65.80
2022-12-23T15:11:50.039Z,65.90
2022-12-23T15:14:42.106Z,63.60
2022-12-23T15:17:32.074Z,67.60
2022-12-23T15:20:12.803Z,68.10
2022-12-23T15:22:43.936Z,75.20
2022-12-23T15:25:24.844Z,75.40
2022-12-23T15:28:01.239Z,75.50
2022-12-23T15:30:50.110Z,73.80
2022-12-23T15:36:32.419Z,72.20
2022-12-23T15:39:01.919Z,71.80
2022-12-23T15:41:30.295Z,67.30
2022-12-23T15:44:01.933Z,71.60
2022-12-23T15:46:31.880Z,72.90
2022-12-23T15:49:02.177Z,71.10
2022-12-23T15:52:07.930Z,72.70
2022-12-23T15:54:53.339Z,77.10
2022-12-23T15:57:26.497Z,74.50
2022-12-23T16:00:31.537Z,74.80
2022-12-23T16:03:02.256Z,79.70
2022-12-23T16:05:34.327Z,76.20
2022-12-23T16:08:21.805Z,91.40
2022-12-23T16:11:18.152Z,81.40
2022-12-23T16:14:03.039Z,85.30
2022-12-23T16:16:40.589Z,86.40
2022-12-23T16:19:46.874Z,80.40
2022-12-23T16:22:21.196Z,83.40
2022-12-23T16:24:54.707Z,79.70
2022-12-23T16:27:48.297Z,71.30
2022-12-23T16:30:24.432Z,80.80
2022-12-23T16:32:58.542Z,80.80
2022-12-23T16:35:39.342Z,74.50
2022-12-23T16:38:18.431Z,79.80
2022-12-23T16:40:51.666Z,75.50
2022-12-23T16:43:21.309Z,72.60
2022-12-23T16:45:59.423Z,77.50
2022-12-23T16:48:35.271Z,77.80
2022-12-23T16:51:08.062Z,79.30
2022-12-23T16:53:37.766Z,74.50
2022-12-23T16:56:14.812Z,79.90
2022-12-23T16:58:44.253Z,77.80
2022-12-23T17:01:25.483Z,84.00
2022-12-23T17:03:56.084Z,76.70
2022-12-23T17:06:24.817Z,84.00
2022-12-23T17:08:53.580Z,84.30
2022-12-23T17:11:45.256Z,75.50
2022-12-23T17:14:25.005Z,80.60
2022-12-23T17:16:54.814Z,90.60
2022-12-23T17:19:29.050Z,102.10
2022-12-23T17:22:04.131Z,96.20
2022-12-23T17:24:35.292Z,104.70
2022-12-23T17:27:17.130Z,100.20
2022-12-23T17:29:45.423Z,101.70
2022-12-23T17:32:19.540Z,103.40
2022-12-23T17:34:47.874Z,91.50
2022-12-23T17:37:20.276Z,95.10
2022-12-23T17:39:49.482Z,91.10
2022-12-23T17:42:25.837Z,90.20
2022-12-23T17:44:57.673Z,78.60
2022-12-23T17:47:29.813Z,78.50
2022-12-23T17:49:58.309Z,72.90
2022-12-23T17:52:26.550Z,70.90
2022-12-23T17:54:55.805Z,67.20
2022-12-23T17:57:26.785Z,66.90
2022-12-23T17:59:55.178Z,67.30
2022-12-23T18:02:33.238Z,73.00
2022-12-23T18:05:03.176Z,69.30
2022-12-23T18:07:34.598Z,64.60
2022-12-23T18:10:02.817Z,64.20
2022-12-23T18:16:50.719Z,61.60
2022-12-23T18:23:39.809Z,62.60
2022-12-23T18:30:26.890Z,59.10
2022-12-23T19:35:12.859Z,59.90
2022-12-23T20:04:28.086Z,54.30
2022-12-23T20:33:57.491Z,60.90
2022-12-23T20:45:05.346Z,60.60
2022-12-23T21:23:57.236Z,54.80
2022-12-23T21:48:59.857Z,57.90
2022-12-23T21:55:47.555Z,55.70
2022-12-23T22:02:35.547Z,55.30
2022-12-23T22:09:24.483Z,54.80
2022-12-23T22:16:13.588Z,55.20
2022-12-23T22:23:00.401Z,51.00
2022-12-23T22:29:48.126Z,52.00
2022-12-23T22:36:35.188Z,50.60
2022-12-23T22:47:41.903Z,50.20
2022-12-23T22:54:31.860Z,43.20
2022-12-23T23:06:00.876Z,40.10
2022-12-23T23:17:05.912Z,45.30
2022-12-23T23:28:08.233Z,45.90
2022-12-23T23:34:54.681Z,45.40
2022-12-23T23:50:17.010Z,43.60
2022-12-23T23:57:03.506Z,40.50
